sensor_id;sensor_type;location;lat;lon;timestamp;temperature;humidity
1381;DHT22;684;48.342;10.096;2023-08-08T00:01:18;13.80;29.50
1381;DHT22;684;48.342;10.096;2023-08-08T00:03:44;13.80;29.60
1381;DHT22;684;48.342;10.096;2023-08-08T00:06:11;13.80;29.70
1381;DHT22;684;48.342;10.096;2023-08-08T00:08:38;13.80;29.80
1381;DHT22;684;48.342;10.096;2023-08-08T00:11:06;13.80;30.10
1381;DHT22;684;48.342;10.096;2023-08-08T00:13:33;13.80;30.00
1381;DHT22;684;48.342;10.096;2023-08-08T00:15:59;13.80;30.00
1381;DHT22;684;48.342;10.096;2023-08-08T00:18:26;13.70;30.20
1381;DHT22;684;48.342;10.096;2023-08-08T00:20:53;13.70;30.20
1381;DHT22;684;48.342;10.096;2023-08-08T00:23:19;13.70;30.30
1381;DHT22;684;48.342;10.096;2023-08-08T00:25:46;13.70;30.70
1381;DHT22;684;48.342;10.096;2023-08-08T00:28:17;13.70;30.60
1381;DHT22;684;48.342;10.096;2023-08-08T00:30:43;13.60;30.60
1381;DHT22;684;48.342;10.096;2023-08-08T00:33:10;13.60;30.70
1381;DHT22;684;48.342;10.096;2023-08-08T00:35:37;13.60;31.00
1381;DHT22;684;48.342;10.096;2023-08-08T00:38:04;13.60;31.00
1381;DHT22;684;48.342;10.096;2023-08-08T00:40:30;13.50;31.10
1381;DHT22;684;48.342;10.096;2023-08-08T00:42:57;13.50;31.10
1381;DHT22;684;48.342;10.096;2023-08-08T00:45:25;13.50;31.20
1381;DHT22;684;48.342;10.096;2023-08-08T00:47:52;13.50;31.30
1381;DHT22;684;48.342;10.096;2023-08-08T00:50:20;13.50;31.30
1381;DHT22;684;48.342;10.096;2023-08-08T00:52:48;13.50;31.50
1381;DHT22;684;48.342;10.096;2023-08-08T00:55:14;13.50;31.40
1381;DHT22;684;48.342;10.096;2023-08-08T00:57:41;13.50;31.60
1381;DHT22;684;48.342;10.096;2023-08-08T01:00:09;13.50;31.60
1381;DHT22;684;48.342;10.096;2023-08-08T01:02:37;13.40;31.60
1381;DHT22;684;48.342;10.096;2023-08-08T01:05:05;13.40;31.80
1381;DHT22;684;48.342;10.096;2023-08-08T01:07:38;13.30;31.80
1381;DHT22;684;48.342;10.096;2023-08-08T01:10:07;13.40;31.90
1381;DHT22;684;48.342;10.096;2023-08-08T01:12:38;13.40;32.00
1381;DHT22;684;48.342;10.096;2023-08-08T01:15:07;13.40;32.00
1381;DHT22;684;48.342;10.096;2023-08-08T01:17:34;13.40;31.90
1381;DHT22;684;48.342;10.096;2023-08-08T01:20:05;13.40;31.90
1381;DHT22;684;48.342;10.096;2023-08-08T01:22:36;13.40;31.90
1381;DHT22;684;48.342;10.096;2023-08-08T01:25:07;13.40;32.00
1381;DHT22;684;48.342;10.096;2023-08-08T01:27:35;13.50;32.10
1381;DHT22;684;48.342;10.096;2023-08-08T01:30:01;13.50;32.00
1381;DHT22;684;48.342;10.096;2023-08-08T01:32:29;13.60;32.00
1381;DHT22;684;48.342;10.096;2023-08-08T01:34:56;13.60;31.80
1381;DHT22;684;48.342;10.096;2023-08-08T01:37:27;13.50;31.90
1381;DHT22;684;48.342;10.096;2023-08-08T01:39:56;13.60;32.00
1381;DHT22;684;48.342;10.096;2023-08-08T01:42:26;13.60;31.90
1381;DHT22;684;48.342;10.096;2023-08-08T01:44:53;13.60;31.80
1381;DHT22;684;48.342;10.096;2023-08-08T01:47:21;13.60;31.70
1381;DHT22;684;48.342;10.096;2023-08-08T01:49:47;13.60;31.70
1381;DHT22;684;48.342;10.096;2023-08-08T01:52:14;13.60;31.80
1381;DHT22;684;48.342;10.096;2023-08-08T01:54:41;13.60;31.70
1381;DHT22;684;48.342;10.096;2023-08-08T01:57:08;13.60;31.70
1381;DHT22;684;48.342;10.096;2023-08-08T01:59:36;13.60;31.60
1381;DHT22;684;48.342;10.096;2023-08-08T02:02:03;13.60;31.50
1381;DHT22;684;48.342;10.096;2023-08-08T02:04:30;13.60;31.40
1381;DHT22;684;48.342;10.096;2023-08-08T02:06:56;13.60;31.30
1381;DHT22;684;48.342;10.096;2023-08-08T02:09:23;13.60;31.30
1381;DHT22;684;48.342;10.096;2023-08-08T02:11:50;13.60;31.40
1381;DHT22;684;48.342;10.096;2023-08-08T02:14:16;13.70;31.40
1381;DHT22;684;48.342;10.096;2023-08-08T02:16:44;13.70;31.40
1381;DHT22;684;48.342;10.096;2023-08-08T02:19:11;13.70;31.30
1381;DHT22;684;48.342;10.096;2023-08-08T02:21:38;13.70;31.30
1381;DHT22;684;48.342;10.096;2023-08-08T02:24:04;13.60;31.20
1381;DHT22;684;48.342;10.096;2023-08-08T02:26:31;13.60;31.20
1381;DHT22;684;48.342;10.096;2023-08-08T02:28:58;13.60;31.20
1381;DHT22;684;48.342;10.096;2023-08-08T02:31:25;13.60;31.10
1381;DHT22;684;48.342;10.096;2023-08-08T02:33:53;13.70;31.00
1381;DHT22;684;48.342;10.096;2023-08-08T02:36:20;13.70;31.00
1381;DHT22;684;48.342;10.096;2023-08-08T02:38:46;13.70;30.90
1381;DHT22;684;48.342;10.096;2023-08-08T02:41:15;13.70;30.90
1381;DHT22;684;48.342;10.096;2023-08-08T02:43:41;13.70;30.80
1381;DHT22;684;48.342;10.096;2023-08-08T02:46:08;13.70;30.90
1381;DHT22;684;48.342;10.096;2023-08-08T02:48:35;13.70;30.90
1381;DHT22;684;48.342;10.096;2023-08-08T02:51:03;13.70;30.90
1381;DHT22;684;48.342;10.096;2023-08-08T02:53:29;13.70;30.90
1381;DHT22;684;48.342;10.096;2023-08-08T02:55:56;13.70;30.80
1381;DHT22;684;48.342;10.096;2023-08-08T02:58:23;13.60;30.90
1381;DHT22;684;48.342;10.096;2023-08-08T03:00:50;13.60;30.70
1381;DHT22;684;48.342;10.096;2023-08-08T03:03:16;13.60;30.80
1381;DHT22;684;48.342;10.096;2023-08-08T03:05:44;13.60;30.70
1381;DHT22;684;48.342;10.096;2023-08-08T03:08:12;13.70;30.70
1381;DHT22;684;48.342;10.096;2023-08-08T03:10:39;13.60;30.60
1381;DHT22;684;48.342;10.096;2023-08-08T03:13:06;13.60;30.70
1381;DHT22;684;48.342;10.096;2023-08-08T03:15:33;13.70;30.60
1381;DHT22;684;48.342;10.096;2023-08-08T03:18:00;13.60;30.50
1381;DHT22;684;48.342;10.096;2023-08-08T03:20:27;13.70;30.60
1381;DHT22;684;48.342;10.096;2023-08-08T03:22:54;13.70;30.70
1381;DHT22;684;48.342;10.096;2023-08-08T03:25:22;13.70;30.70
1381;DHT22;684;48.342;10.096;2023-08-08T03:27:48;13.60;30.60
1381;DHT22;684;48.342;10.096;2023-08-08T03:30:15;13.60;30.50
1381;DHT22;684;48.342;10.096;2023-08-08T03:32:42;13.70;30.60
1381;DHT22;684;48.342;10.096;2023-08-08T03:35:08;13.60;30.40
1381;DHT22;684;48.342;10.096;2023-08-08T03:37:35;13.60;30.50
1381;DHT22;684;48.342;10.096;2023-08-08T03:40:02;13.70;30.50
1381;DHT22;684;48.342;10.096;2023-08-08T03:42:31;13.60;30.50
1381;DHT22;684;48.342;10.096;2023-08-08T03:44:57;13.60;30.50
1381;DHT22;684;48.342;10.096;2023-08-08T03:47:24;13.60;30.50
1381;DHT22;684;48.342;10.096;2023-08-08T03:49:53;13.60;30.40
1381;DHT22;684;48.342;10.096;2023-08-08T03:52:20;13.60;30.40
1381;DHT22;684;48.342;10.096;2023-08-08T03:54:47;13.60;30.30
1381;DHT22;684;48.342;10.096;2023-08-08T03:57:14;13.50;30.40
1381;DHT22;684;48.342;10.096;2023-08-08T03:59:42;13.50;30.40
1381;DHT22;684;48.342;10.096;2023-08-08T04:02:09;13.50;30.50
1381;DHT22;684;48.342;10.096;2023-08-08T04:04:36;13.40;30.50
1381;DHT22;684;48.342;10.096;2023-08-08T04:07:04;13.40;30.60
1381;DHT22;684;48.342;10.096;2023-08-08T04:09:30;13.40;30.70
1381;DHT22;684;48.342;10.096;2023-08-08T04:11:57;13.30;30.80
1381;DHT22;684;48.342;10.096;2023-08-08T04:14:24;13.30;30.80
1381;DHT22;684;48.342;10.096;2023-08-08T04:16:52;13.30;30.80
1381;DHT22;684;48.342;10.096;2023-08-08T04:19:19;13.30;30.90
1381;DHT22;684;48.342;10.096;2023-08-08T04:21:45;13.20;30.90
1381;DHT22;684;48.342;10.096;2023-08-08T04:24:12;13.20;30.90
1381;DHT22;684;48.342;10.096;2023-08-08T04:26:39;13.20;31.00
1381;DHT22;684;48.342;10.096;2023-08-08T04:29:06;13.20;31.00
1381;DHT22;684;48.342;10.096;2023-08-08T04:31:32;13.30;31.00
1381;DHT22;684;48.342;10.096;2023-08-08T04:34:01;13.30;31.00
1381;DHT22;684;48.342;10.096;2023-08-08T04:36:28;13.30;30.90
1381;DHT22;684;48.342;10.096;2023-08-08T04:38:55;13.30;30.70
1381;DHT22;684;48.342;10.096;2023-08-08T04:41:22;13.30;30.70
1381;DHT22;684;48.342;10.096;2023-08-08T04:43:48;13.40;30.60
1381;DHT22;684;48.342;10.096;2023-08-08T04:46:15;13.40;30.50
1381;DHT22;684;48.342;10.096;2023-08-08T04:48:42;13.50;30.40
1381;DHT22;684;48.342;10.096;2023-08-08T04:51:10;13.50;30.40
1381;DHT22;684;48.342;10.096;2023-08-08T04:53:36;13.60;29.70
1381;DHT22;684;48.342;10.096;2023-08-08T04:56:03;13.70;29.50
1381;DHT22;684;48.342;10.096;2023-08-08T04:58:30;13.70;29.20
1381;DHT22;684;48.342;10.096;2023-08-08T05:00:57;13.80;29.00
1381;DHT22;684;48.342;10.096;2023-08-08T05:03:24;13.80;28.90
1381;DHT22;684;48.342;10.096;2023-08-08T05:05:51;13.90;28.90
1381;DHT22;684;48.342;10.096;2023-08-08T05:08:19;14.10;28.50
1381;DHT22;684;48.342;10.096;2023-08-08T05:10:45;14.40;28.00
1381;DHT22;684;48.342;10.096;2023-08-08T05:13:12;14.60;27.20
1381;DHT22;684;48.342;10.096;2023-08-08T05:15:39;15.10;26.10
1381;DHT22;684;48.342;10.096;2023-08-08T05:18:06;15.50;24.20
1381;DHT22;684;48.342;10.096;2023-08-08T05:20:33;15.90;23.30
1381;DHT22;684;48.342;10.096;2023-08-08T05:22:59;16.30;20.30
1381;DHT22;684;48.342;10.096;2023-08-08T05:25:27;16.10;20.30
1381;DHT22;684;48.342;10.096;2023-08-08T05:27:54;15.90;20.60
1381;DHT22;684;48.342;10.096;2023-08-08T05:30:21;15.80;21.10
1381;DHT22;684;48.342;10.096;2023-08-08T05:32:48;15.70;21.70
1381;DHT22;684;48.342;10.096;2023-08-08T05:35:15;15.60;21.70
1381;DHT22;684;48.342;10.096;2023-08-08T05:37:41;15.50;22.00
1381;DHT22;684;48.342;10.096;2023-08-08T05:40:09;15.40;22.20
1381;DHT22;684;48.342;10.096;2023-08-08T05:42:37;15.40;22.20
1381;DHT22;684;48.342;10.096;2023-08-08T05:45:05;15.40;22.50
1381;DHT22;684;48.342;10.096;2023-08-08T05:47:32;15.40;22.30
1381;DHT22;684;48.342;10.096;2023-08-08T05:49:59;15.50;22.20
1381;DHT22;684;48.342;10.096;2023-08-08T05:52:25;15.60;21.80
1381;DHT22;684;48.342;10.096;2023-08-08T05:54:52;15.70;21.60
1381;DHT22;684;48.342;10.096;2023-08-08T05:57:19;16.10;20.70
1381;DHT22;684;48.342;10.096;2023-08-08T05:59:48;17.40;19.10
1381;DHT22;684;48.342;10.096;2023-08-08T06:02:15;18.00;16.40
1381;DHT22;684;48.342;10.096;2023-08-08T06:04:42;19.60;14.90
1381;DHT22;684;48.342;10.096;2023-08-08T06:07:09;21.80;10.30
1381;DHT22;684;48.342;10.096;2023-08-08T06:09:36;24.40;4.30
1381;DHT22;684;48.342;10.096;2023-08-08T06:12:03;26.60;1.00
1381;DHT22;684;48.342;10.096;2023-08-08T06:14:30;28.40;1.00
1381;DHT22;684;48.342;10.096;2023-08-08T06:16:58;29.00;1.00
1381;DHT22;684;48.342;10.096;2023-08-08T06:19:25;29.20;1.00
1381;DHT22;684;48.342;10.096;2023-08-08T06:21:52;29.50;1.00
1381;DHT22;684;48.342;10.096;2023-08-08T06:24:19;30.70;1.00
1381;DHT22;684;48.342;10.096;2023-08-08T06:26:45;32.10;1.00
1381;DHT22;684;48.342;10.096;2023-08-08T06:29:12;33.20;1.00
1381;DHT22;684;48.342;10.096;2023-08-08T06:31:39;33.70;1.00
1381;DHT22;684;48.342;10.096;2023-08-08T06:34:08;34.10;1.00
1381;DHT22;684;48.342;10.096;2023-08-08T06:36:35;34.40;1.00
1381;DHT22;684;48.342;10.096;2023-08-08T06:39:01;34.60;1.00
1381;DHT22;684;48.342;10.096;2023-08-08T06:41:28;35.50;1.00
1381;DHT22;684;48.342;10.096;2023-08-08T06:43:55;36.40;1.00
1381;DHT22;684;48.342;10.096;2023-08-08T06:46:22;36.90;1.00
1381;DHT22;684;48.342;10.096;2023-08-08T06:48:49;37.60;1.00
1381;DHT22;684;48.342;10.096;2023-08-08T06:51:19;38.50;1.00
1381;DHT22;684;48.342;10.096;2023-08-08T06:53:46;38.80;1.00
1381;DHT22;684;48.342;10.096;2023-08-08T06:56:13;39.30;1.00
1381;DHT22;684;48.342;10.096;2023-08-08T06:58:39;39.90;1.00
1381;DHT22;684;48.342;10.096;2023-08-08T07:01:06;40.50;1.00
1381;DHT22;684;48.342;10.096;2023-08-08T07:03:33;40.80;1.00
1381;DHT22;684;48.342;10.096;2023-08-08T07:05:59;41.30;1.00
1381;DHT22;684;48.342;10.096;2023-08-08T07:08:27;41.90;1.00
1381;DHT22;684;48.342;10.096;2023-08-08T07:10:54;42.10;1.00
1381;DHT22;684;48.342;10.096;2023-08-08T07:13:21;42.40;1.00
1381;DHT22;684;48.342;10.096;2023-08-08T07:15:48;42.70;1.00
1381;DHT22;684;48.342;10.096;2023-08-08T07:18:15;43.30;1.00
1381;DHT22;684;48.342;10.096;2023-08-08T07:20:41;43.70;1.00
1381;DHT22;684;48.342;10.096;2023-08-08T07:23:08;43.40;1.00
1381;DHT22;684;48.342;10.096;2023-08-08T07:25:36;43.20;1.00
1381;DHT22;684;48.342;10.096;2023-08-08T07:28:03;43.40;1.00
1381;DHT22;684;48.342;10.096;2023-08-08T07:30:30;43.20;1.00
1381;DHT22;684;48.342;10.096;2023-08-08T07:32:57;42.90;1.00
1381;DHT22;684;48.342;10.096;2023-08-08T07:35:23;42.90;1.00
1381;DHT22;684;48.342;10.096;2023-08-08T07:37:50;43.60;1.00
1381;DHT22;684;48.342;10.096;2023-08-08T07:40:18;43.90;1.00
1381;DHT22;684;48.342;10.096;2023-08-08T07:42:47;44.40;1.00
1381;DHT22;684;48.342;10.096;2023-08-08T07:45:14;45.30;1.00
1381;DHT22;684;48.342;10.096;2023-08-08T07:47:41;45.70;1.00
1381;DHT22;684;48.342;10.096;2023-08-08T07:50:08;45.40;1.00
1381;DHT22;684;48.342;10.096;2023-08-08T07:52:35;45.20;1.00
1381;DHT22;684;48.342;10.096;2023-08-08T07:55:02;45.10;1.00
1381;DHT22;684;48.342;10.096;2023-08-08T07:57:29;45.40;1.00
1381;DHT22;684;48.342;10.096;2023-08-08T07:59:58;45.80;1.00
1381;DHT22;684;48.342;10.096;2023-08-08T08:02:26;46.50;1.00
1381;DHT22;684;48.342;10.096;2023-08-08T08:04:53;46.30;1.00
1381;DHT22;684;48.342;10.096;2023-08-08T08:07:20;45.90;1.00
1381;DHT22;684;48.342;10.096;2023-08-08T08:09:46;46.20;1.00
1381;DHT22;684;48.342;10.096;2023-08-08T08:12:13;46.50;1.00
1381;DHT22;684;48.342;10.096;2023-08-08T08:14:40;46.60;1.00
1381;DHT22;684;48.342;10.096;2023-08-08T08:17:08;46.80;1.00
1381;DHT22;684;48.342;10.096;2023-08-08T08:19:35;47.30;1.00
1381;DHT22;684;48.342;10.096;2023-08-08T08:22:02;47.80;1.00
1381;DHT22;684;48.342;10.096;2023-08-08T08:24:29;48.60;1.00
1381;DHT22;684;48.342;10.096;2023-08-08T08:26:57;49.20;1.00
1381;DHT22;684;48.342;10.096;2023-08-08T08:29:24;49.70;1.00
1381;DHT22;684;48.342;10.096;2023-08-08T08:31:50;50.20;1.00
1381;DHT22;684;48.342;10.096;2023-08-08T08:34:18;50.50;1.00
1381;DHT22;684;48.342;10.096;2023-08-08T08:36:45;50.60;1.00
1381;DHT22;684;48.342;10.096;2023-08-08T08:39:12;50.60;1.00
1381;DHT22;684;48.342;10.096;2023-08-08T08:41:39;50.70;1.00
1381;DHT22;684;48.342;10.096;2023-08-08T08:44:05;50.60;1.00
1381;DHT22;684;48.342;10.096;2023-08-08T08:46:32;50.10;1.00
1381;DHT22;684;48.342;10.096;2023-08-08T08:49:03;49.50;1.00
1381;DHT22;684;48.342;10.096;2023-08-08T08:51:34;49.20;1.00
1381;DHT22;684;48.342;10.096;2023-08-08T08:54:02;49.30;1.00
1381;DHT22;684;48.342;10.096;2023-08-08T08:56:29;48.50;1.00
1381;DHT22;684;48.342;10.096;2023-08-08T08:58:58;47.60;1.00
1381;DHT22;684;48.342;10.096;2023-08-08T09:01:26;46.70;1.00
1381;DHT22;684;48.342;10.096;2023-08-08T09:03:53;47.50;1.00
1381;DHT22;684;48.342;10.096;2023-08-08T09:06:20;47.30;1.00
1381;DHT22;684;48.342;10.096;2023-08-08T09:08:50;47.10;1.00
1381;DHT22;684;48.342;10.096;2023-08-08T09:11:16;46.50;1.00
1381;DHT22;684;48.342;10.096;2023-08-08T09:13:43;45.70;1.00
1381;DHT22;684;48.342;10.096;2023-08-08T09:16:10;45.00;1.00
1381;DHT22;684;48.342;10.096;2023-08-08T09:18:38;44.00;1.00
1381;DHT22;684;48.342;10.096;2023-08-08T09:21:04;43.50;1.00
1381;DHT22;684;48.342;10.096;2023-08-08T09:23:31;42.90;1.00
1381;DHT22;684;48.342;10.096;2023-08-08T09:26:00;41.80;1.00
1381;DHT22;684;48.342;10.096;2023-08-08T09:28:27;41.10;1.00
1381;DHT22;684;48.342;10.096;2023-08-08T09:30:54;41.10;1.00
1381;DHT22;684;48.342;10.096;2023-08-08T09:33:21;40.80;1.00
1381;DHT22;684;48.342;10.096;2023-08-08T09:35:47;39.40;1.00
1381;DHT22;684;48.342;10.096;2023-08-08T09:38:14;37.90;1.00
1381;DHT22;684;48.342;10.096;2023-08-08T09:40:41;37.10;1.00
1381;DHT22;684;48.342;10.096;2023-08-08T09:43:09;38.00;1.00
1381;DHT22;684;48.342;10.096;2023-08-08T09:45:38;37.40;1.00
1381;DHT22;684;48.342;10.096;2023-08-08T09:48:07;38.10;1.00
1381;DHT22;684;48.342;10.096;2023-08-08T09:50:34;38.40;1.00
1381;DHT22;684;48.342;10.096;2023-08-08T09:53:02;38.00;1.00
1381;DHT22;684;48.342;10.096;2023-08-08T09:55:29;36.40;1.00
1381;DHT22;684;48.342;10.096;2023-08-08T09:57:57;34.90;1.00
1381;DHT22;684;48.342;10.096;2023-08-08T10:00:25;33.70;1.00
1381;DHT22;684;48.342;10.096;2023-08-08T10:02:53;34.60;1.00
1381;DHT22;684;48.342;10.096;2023-08-08T10:05:21;36.40;1.00
1381;DHT22;684;48.342;10.096;2023-08-08T10:07:48;37.20;1.00
1381;DHT22;684;48.342;10.096;2023-08-08T10:10:15;37.70;1.00
1381;DHT22;684;48.342;10.096;2023-08-08T10:12:44;37.80;1.00
1381;DHT22;684;48.342;10.096;2023-08-08T10:15:11;38.20;1.00
1381;DHT22;684;48.342;10.096;2023-08-08T10:17:40;37.00;1.00
1381;DHT22;684;48.342;10.096;2023-08-08T10:20:09;36.20;1.00
1381;DHT22;684;48.342;10.096;2023-08-08T10:22:37;35.90;1.00
1381;DHT22;684;48.342;10.096;2023-08-08T10:25:05;35.00;1.00
1381;DHT22;684;48.342;10.096;2023-08-08T10:27:32;33.70;1.00
1381;DHT22;684;48.342;10.096;2023-08-08T10:30:02;32.50;1.00
1381;DHT22;684;48.342;10.096;2023-08-08T10:32:39;31.40;1.00
1381;DHT22;684;48.342;10.096;2023-08-08T10:35:06;30.50;1.00
1381;DHT22;684;48.342;10.096;2023-08-08T10:37:33;30.10;1.00
1381;DHT22;684;48.342;10.096;2023-08-08T10:40:01;29.80;1.00
1381;DHT22;684;48.342;10.096;2023-08-08T10:42:31;29.60;1.00
1381;DHT22;684;48.342;10.096;2023-08-08T10:44:59;29.40;1.00
1381;DHT22;684;48.342;10.096;2023-08-08T10:47:30;29.10;1.00
1381;DHT22;684;48.342;10.096;2023-08-08T10:50:03;28.80;1.00
1381;DHT22;684;48.342;10.096;2023-08-08T10:52:30;28.60;1.00
1381;DHT22;684;48.342;10.096;2023-08-08T10:54:57;28.50;1.00
1381;DHT22;684;48.342;10.096;2023-08-08T10:57:25;28.30;1.00
1381;DHT22;684;48.342;10.096;2023-08-08T10:59:52;28.20;1.00
1381;DHT22;684;48.342;10.096;2023-08-08T11:02:19;28.10;1.00
1381;DHT22;684;48.342;10.096;2023-08-08T11:04:46;27.90;1.00
1381;DHT22;684;48.342;10.096;2023-08-08T11:07:15;27.70;1.00
1381;DHT22;684;48.342;10.096;2023-08-08T11:09:42;27.50;1.00
1381;DHT22;684;48.342;10.096;2023-08-08T11:12:14;27.20;1.00
1381;DHT22;684;48.342;10.096;2023-08-08T11:14:40;26.90;1.00
1381;DHT22;684;48.342;10.096;2023-08-08T11:17:07;26.70;1.00
1381;DHT22;684;48.342;10.096;2023-08-08T11:19:39;26.40;1.00
1381;DHT22;684;48.342;10.096;2023-08-08T11:22:09;26.40;1.00
1381;DHT22;684;48.342;10.096;2023-08-08T11:24:37;26.40;1.00
1381;DHT22;684;48.342;10.096;2023-08-08T11:30:14;26.30;1.00
1381;DHT22;684;48.342;10.096;2023-08-08T11:32:42;26.10;1.00
1381;DHT22;684;48.342;10.096;2023-08-08T11:35:09;26.00;1.00
1381;DHT22;684;48.342;10.096;2023-08-08T11:37:36;25.90;1.00
1381;DHT22;684;48.342;10.096;2023-08-08T11:40:06;25.90;1.00
1381;DHT22;684;48.342;10.096;2023-08-08T11:42:34;25.80;1.00
1381;DHT22;684;48.342;10.096;2023-08-08T11:45:01;25.80;1.00
1381;DHT22;684;48.342;10.096;2023-08-08T11:47:30;25.80;1.00
1381;DHT22;684;48.342;10.096;2023-08-08T11:50:01;25.80;1.00
1381;DHT22;684;48.342;10.096;2023-08-08T11:52:28;25.80;1.00
1381;DHT22;684;48.342;10.096;2023-08-08T11:54:55;25.60;1.00
1381;DHT22;684;48.342;10.096;2023-08-08T11:57:23;25.50;1.00
1381;DHT22;684;48.342;10.096;2023-08-08T11:59:52;25.40;1.00
1381;DHT22;684;48.342;10.096;2023-08-08T12:02:19;25.40;1.00
1381;DHT22;684;48.342;10.096;2023-08-08T12:04:46;25.20;1.00
1381;DHT22;684;48.342;10.096;2023-08-08T12:07:12;25.10;1.00
1381;DHT22;684;48.342;10.096;2023-08-08T12:09:39;24.90;1.00
1381;DHT22;684;48.342;10.096;2023-08-08T12:12:08;24.80;1.00
1381;DHT22;684;48.342;10.096;2023-08-08T12:14:38;24.80;1.00
1381;DHT22;684;48.342;10.096;2023-08-08T12:17:05;24.80;1.00
1381;DHT22;684;48.342;10.096;2023-08-08T12:19:32;24.70;1.00
1381;DHT22;684;48.342;10.096;2023-08-08T12:21:59;24.70;1.00
1381;DHT22;684;48.342;10.096;2023-08-08T12:24:26;24.70;1.00
1381;DHT22;684;48.342;10.096;2023-08-08T12:26:52;24.70;1.00
1381;DHT22;684;48.342;10.096;2023-08-08T12:29:19;24.60;1.00
1381;DHT22;684;48.342;10.096;2023-08-08T12:31:47;24.70;1.00
1381;DHT22;684;48.342;10.096;2023-08-08T12:34:14;24.80;1.00
1381;DHT22;684;48.342;10.096;2023-08-08T12:36:40;24.70;1.00
1381;DHT22;684;48.342;10.096;2023-08-08T12:39:07;24.60;1.00
1381;DHT22;684;48.342;10.096;2023-08-08T12:41:36;24.60;1.00
1381;DHT22;684;48.342;10.096;2023-08-08T12:44:02;24.50;1.00
1381;DHT22;684;48.342;10.096;2023-08-08T12:46:29;24.50;1.00
1381;DHT22;684;48.342;10.096;2023-08-08T12:48:57;24.50;1.00
1381;DHT22;684;48.342;10.096;2023-08-08T12:51:24;24.40;1.00
1381;DHT22;684;48.342;10.096;2023-08-08T12:53:51;24.30;1.00
1381;DHT22;684;48.342;10.096;2023-08-08T12:56:17;24.10;1.00
1381;DHT22;684;48.342;10.096;2023-08-08T12:58:44;24.10;1.00
1381;DHT22;684;48.342;10.096;2023-08-08T13:01:11;24.00;1.00
1381;DHT22;684;48.342;10.096;2023-08-08T13:03:37;24.10;1.00
1381;DHT22;684;48.342;10.096;2023-08-08T13:06:06;24.20;1.00
1381;DHT22;684;48.342;10.096;2023-08-08T13:08:36;24.20;1.00
1381;DHT22;684;48.342;10.096;2023-08-08T13:11:03;24.20;1.00
1381;DHT22;684;48.342;10.096;2023-08-08T13:13:30;24.20;1.00
1381;DHT22;684;48.342;10.096;2023-08-08T13:15:57;24.10;1.00
1381;DHT22;684;48.342;10.096;2023-08-08T13:18:24;24.00;1.00
1381;DHT22;684;48.342;10.096;2023-08-08T13:20:50;24.00;1.00
1381;DHT22;684;48.342;10.096;2023-08-08T13:23:19;24.00;1.00
1381;DHT22;684;48.342;10.096;2023-08-08T13:25:45;24.00;1.00
1381;DHT22;684;48.342;10.096;2023-08-08T13:28:12;24.00;1.00
1381;DHT22;684;48.342;10.096;2023-08-08T13:30:40;24.00;1.00
1381;DHT22;684;48.342;10.096;2023-08-08T13:33:08;24.00;1.00
1381;DHT22;684;48.342;10.096;2023-08-08T13:35:35;24.00;1.00
1381;DHT22;684;48.342;10.096;2023-08-08T13:38:01;24.00;1.00
1381;DHT22;684;48.342;10.096;2023-08-08T13:40:30;24.10;1.00
1381;DHT22;684;48.342;10.096;2023-08-08T13:42:56;24.30;1.00
1381;DHT22;684;48.342;10.096;2023-08-08T13:45:23;24.40;1.00
1381;DHT22;684;48.342;10.096;2023-08-08T13:47:50;24.40;1.00
1381;DHT22;684;48.342;10.096;2023-08-08T13:50:17;24.40;1.00
1381;DHT22;684;48.342;10.096;2023-08-08T13:52:43;24.40;1.00
1381;DHT22;684;48.342;10.096;2023-08-08T13:55:10;24.50;1.00
1381;DHT22;684;48.342;10.096;2023-08-08T13:57:38;24.50;1.00
1381;DHT22;684;48.342;10.096;2023-08-08T14:00:06;24.60;1.00
1381;DHT22;684;48.342;10.096;2023-08-08T14:02:36;24.70;1.00
1381;DHT22;684;48.342;10.096;2023-08-08T14:05:03;24.60;1.00
1381;DHT22;684;48.342;10.096;2023-08-08T14:07:31;24.50;1.00
1381;DHT22;684;48.342;10.096;2023-08-08T14:09:58;24.30;1.00
1381;DHT22;684;48.342;10.096;2023-08-08T14:12:25;24.30;1.00
1381;DHT22;684;48.342;10.096;2023-08-08T14:14:53;24.20;1.00
1381;DHT22;684;48.342;10.096;2023-08-08T14:17:20;24.10;1.00
1381;DHT22;684;48.342;10.096;2023-08-08T14:19:46;24.00;1.00
1381;DHT22;684;48.342;10.096;2023-08-08T14:22:13;23.90;1.00
1381;DHT22;684;48.342;10.096;2023-08-08T14:24:41;23.90;1.00
1381;DHT22;684;48.342;10.096;2023-08-08T14:27:08;23.80;1.00
1381;DHT22;684;48.342;10.096;2023-08-08T14:29:35;23.80;1.00
1381;DHT22;684;48.342;10.096;2023-08-08T14:32:03;23.70;1.00
1381;DHT22;684;48.342;10.096;2023-08-08T14:34:30;23.70;1.00
1381;DHT22;684;48.342;10.096;2023-08-08T14:36:58;23.80;1.00
1381;DHT22;684;48.342;10.096;2023-08-08T14:39:25;23.80;1.00
1381;DHT22;684;48.342;10.096;2023-08-08T14:41:52;23.80;1.00
1381;DHT22;684;48.342;10.096;2023-08-08T14:44:19;23.80;1.00
1381;DHT22;684;48.342;10.096;2023-08-08T14:46:46;23.80;1.00
1381;DHT22;684;48.342;10.096;2023-08-08T14:49:14;23.80;1.00
1381;DHT22;684;48.342;10.096;2023-08-08T14:51:40;23.80;1.00
1381;DHT22;684;48.342;10.096;2023-08-08T14:54:07;23.80;1.00
1381;DHT22;684;48.342;10.096;2023-08-08T14:56:34;23.80;1.00
1381;DHT22;684;48.342;10.096;2023-08-08T14:59:01;23.80;1.00
1381;DHT22;684;48.342;10.096;2023-08-08T15:01:27;23.80;1.00
1381;DHT22;684;48.342;10.096;2023-08-08T15:03:56;23.70;1.00
1381;DHT22;684;48.342;10.096;2023-08-08T15:06:24;23.70;1.00
1381;DHT22;684;48.342;10.096;2023-08-08T15:08:51;23.80;1.00
1381;DHT22;684;48.342;10.096;2023-08-08T15:11:18;23.80;1.00
1381;DHT22;684;48.342;10.096;2023-08-08T15:13:44;23.80;1.00
1381;DHT22;684;48.342;10.096;2023-08-08T15:16:11;23.90;1.00
1381;DHT22;684;48.342;10.096;2023-08-08T15:18:39;23.90;1.00
1381;DHT22;684;48.342;10.096;2023-08-08T15:21:06;23.80;1.00
1381;DHT22;684;48.342;10.096;2023-08-08T15:23:34;23.70;1.00
1381;DHT22;684;48.342;10.096;2023-08-08T15:26:01;23.60;1.00
1381;DHT22;684;48.342;10.096;2023-08-08T15:28:28;23.50;1.00
1381;DHT22;684;48.342;10.096;2023-08-08T15:30:55;23.30;1.00
1381;DHT22;684;48.342;10.096;2023-08-08T15:33:22;23.20;1.00
1381;DHT22;684;48.342;10.096;2023-08-08T15:35:49;23.20;1.00
1381;DHT22;684;48.342;10.096;2023-08-08T15:38:16;23.10;1.00
1381;DHT22;684;48.342;10.096;2023-08-08T15:40:44;23.10;1.00
1381;DHT22;684;48.342;10.096;2023-08-08T15:43:11;23.10;1.00
1381;DHT22;684;48.342;10.096;2023-08-08T15:45:38;23.10;1.00
1381;DHT22;684;48.342;10.096;2023-08-08T15:48:05;23.10;1.00
1381;DHT22;684;48.342;10.096;2023-08-08T15:50:32;23.00;1.00
1381;DHT22;684;48.342;10.096;2023-08-08T15:52:59;23.00;1.00
1381;DHT22;684;48.342;10.096;2023-08-08T15:55:27;23.00;1.00
1381;DHT22;684;48.342;10.096;2023-08-08T15:57:55;23.00;1.00
1381;DHT22;684;48.342;10.096;2023-08-08T16:00:22;23.00;1.00
1381;DHT22;684;48.342;10.096;2023-08-08T16:02:49;23.10;1.00
1381;DHT22;684;48.342;10.096;2023-08-08T16:05:16;23.10;1.00
1381;DHT22;684;48.342;10.096;2023-08-08T16:07:43;23.20;1.00
1381;DHT22;684;48.342;10.096;2023-08-08T16:10:10;23.30;1.00
1381;DHT22;684;48.342;10.096;2023-08-08T16:12:37;23.30;1.00
1381;DHT22;684;48.342;10.096;2023-08-08T16:15:07;23.40;1.00